sensor_id;sensor_type;location;lat;lon;timestamp;temperature;humidity
4566;DHT22;2295;51.050;14.608;2023-04-15T00:01:11;6.10;99.90
4566;DHT22;2295;51.050;14.608;2023-04-15T00:03:45;6.10;99.90
4566;DHT22;2295;51.050;14.608;2023-04-15T00:06:15;6.10;99.90
4566;DHT22;2295;51.050;14.608;2023-04-15T00:08:43;6.10;99.90
4566;DHT22;2295;51.050;14.608;2023-04-15T00:11:12;6.10;99.90
4566;DHT22;2295;51.050;14.608;2023-04-15T00:13:44;6.10;99.90
4566;DHT22;2295;51.050;14.608;2023-04-15T00:16:14;6.00;99.90
4566;DHT22;2295;51.050;14.608;2023-04-15T00:18:42;6.00;99.90
4566;DHT22;2295;51.050;14.608;2023-04-15T00:21:11;6.00;99.90
4566;DHT22;2295;51.050;14.608;2023-04-15T00:23:40;6.00;99.90
4566;DHT22;2295;51.050;14.608;2023-04-15T00:26:08;6.00;99.90
4566;DHT22;2295;51.050;14.608;2023-04-15T00:28:37;6.00;99.90
4566;DHT22;2295;51.050;14.608;2023-04-15T00:31:08;6.00;99.90
4566;DHT22;2295;51.050;14.608;2023-04-15T00:33:38;6.00;99.90
4566;DHT22;2295;51.050;14.608;2023-04-15T00:36:07;6.00;99.90
4566;DHT22;2295;51.050;14.608;2023-04-15T00:38:37;5.90;99.90
4566;DHT22;2295;51.050;14.608;2023-04-15T00:41:06;5.90;99.90
4566;DHT22;2295;51.050;14.608;2023-04-15T00:43:35;5.90;99.90
4566;DHT22;2295;51.050;14.608;2023-04-15T00:46:04;5.90;99.90
4566;DHT22;2295;51.050;14.608;2023-04-15T00:48:33;5.90;99.90
4566;DHT22;2295;51.050;14.608;2023-04-15T00:51:03;5.90;99.90
4566;DHT22;2295;51.050;14.608;2023-04-15T00:53:33;5.90;99.90
4566;DHT22;2295;51.050;14.608;2023-04-15T00:56:01;5.90;99.90
4566;DHT22;2295;51.050;14.608;2023-04-15T00:58:29;5.90;99.90
4566;DHT22;2295;51.050;14.608;2023-04-15T01:00:58;5.90;99.90
4566;DHT22;2295;51.050;14.608;2023-04-15T01:03:27;5.90;99.90
4566;DHT22;2295;51.050;14.608;2023-04-15T01:05:57;5.90;99.90
4566;DHT22;2295;51.050;14.608;2023-04-15T01:08:31;5.90;99.90
4566;DHT22;2295;51.050;14.608;2023-04-15T01:11:00;6.00;99.90
4566;DHT22;2295;51.050;14.608;2023-04-15T01:13:31;5.90;99.90
4566;DHT22;2295;51.050;14.608;2023-04-15T01:16:01;5.90;99.90
4566;DHT22;2295;51.050;14.608;2023-04-15T01:18:30;5.90;99.90
4566;DHT22;2295;51.050;14.608;2023-04-15T01:20:59;5.90;99.90
4566;DHT22;2295;51.050;14.608;2023-04-15T01:23:31;5.90;99.90
4566;DHT22;2295;51.050;14.608;2023-04-15T01:26:01;5.90;99.90
4566;DHT22;2295;51.050;14.608;2023-04-15T01:28:31;5.90;99.90
4566;DHT22;2295;51.050;14.608;2023-04-15T01:31:06;5.90;99.90
4566;DHT22;2295;51.050;14.608;2023-04-15T01:33:35;5.90;99.90
4566;DHT22;2295;51.050;14.608;2023-04-15T01:36:05;6.00;99.90
4566;DHT22;2295;51.050;14.608;2023-04-15T01:38:36;6.00;99.90
4566;DHT22;2295;51.050;14.608;2023-04-15T01:41:06;5.90;99.90
4566;DHT22;2295;51.050;14.608;2023-04-15T01:43:34;5.90;99.90
4566;DHT22;2295;51.050;14.608;2023-04-15T01:46:03;5.90;99.90
4566;DHT22;2295;51.050;14.608;2023-04-15T01:48:32;5.90;99.90
4566;DHT22;2295;51.050;14.608;2023-04-15T01:51:00;5.90;99.90
4566;DHT22;2295;51.050;14.608;2023-04-15T01:53:29;5.90;99.90
4566;DHT22;2295;51.050;14.608;2023-04-15T01:55:57;5.90;99.90
4566;DHT22;2295;51.050;14.608;2023-04-15T01:58:27;5.90;99.90
4566;DHT22;2295;51.050;14.608;2023-04-15T02:00:55;5.90;99.90
4566;DHT22;2295;51.050;14.608;2023-04-15T02:03:24;5.90;99.90
4566;DHT22;2295;51.050;14.608;2023-04-15T02:05:52;5.90;99.90
4566;DHT22;2295;51.050;14.608;2023-04-15T02:08:21;5.90;99.90
4566;DHT22;2295;51.050;14.608;2023-04-15T02:10:49;5.90;99.90
4566;DHT22;2295;51.050;14.608;2023-04-15T02:13:18;5.90;99.90
4566;DHT22;2295;51.050;14.608;2023-04-15T02:15:48;5.90;99.90
4566;DHT22;2295;51.050;14.608;2023-04-15T02:18:18;5.90;99.90
4566;DHT22;2295;51.050;14.608;2023-04-15T02:20:46;5.90;99.90
4566;DHT22;2295;51.050;14.608;2023-04-15T02:23:15;6.00;99.90
4566;DHT22;2295;51.050;14.608;2023-04-15T02:25:43;6.00;99.90
4566;DHT22;2295;51.050;14.608;2023-04-15T02:28:20;6.00;99.90
4566;DHT22;2295;51.050;14.608;2023-04-15T02:30:50;6.00;99.90
4566;DHT22;2295;51.050;14.608;2023-04-15T02:33:20;6.00;99.90
4566;DHT22;2295;51.050;14.608;2023-04-15T02:35:48;6.00;99.90
4566;DHT22;2295;51.050;14.608;2023-04-15T02:38:17;6.00;99.90
4566;DHT22;2295;51.050;14.608;2023-04-15T02:40:45;6.00;99.90
4566;DHT22;2295;51.050;14.608;2023-04-15T02:43:15;6.00;99.90
4566;DHT22;2295;51.050;14.608;2023-04-15T02:45:44;6.00;99.90
4566;DHT22;2295;51.050;14.608;2023-04-15T02:48:15;6.10;99.90
4566;DHT22;2295;51.050;14.608;2023-04-15T02:50:45;6.10;99.90
4566;DHT22;2295;51.050;14.608;2023-04-15T02:53:14;6.10;99.90
4566;DHT22;2295;51.050;14.608;2023-04-15T02:55:43;6.20;99.90
4566;DHT22;2295;51.050;14.608;2023-04-15T02:58:12;6.20;99.90
4566;DHT22;2295;51.050;14.608;2023-04-15T03:00:40;6.20;99.90
4566;DHT22;2295;51.050;14.608;2023-04-15T03:03:08;6.20;99.90
4566;DHT22;2295;51.050;14.608;2023-04-15T03:05:38;6.20;99.90
4566;DHT22;2295;51.050;14.608;2023-04-15T03:08:07;6.20;99.90
4566;DHT22;2295;51.050;14.608;2023-04-15T03:10:35;6.30;99.90
4566;DHT22;2295;51.050;14.608;2023-04-15T03:13:03;6.20;99.90
4566;DHT22;2295;51.050;14.608;2023-04-15T03:15:32;6.30;99.90
4566;DHT22;2295;51.050;14.608;2023-04-15T03:18:00;6.30;99.90
4566;DHT22;2295;51.050;14.608;2023-04-15T03:20:29;6.20;99.90
4566;DHT22;2295;51.050;14.608;2023-04-15T03:22:58;6.20;99.90
4566;DHT22;2295;51.050;14.608;2023-04-15T03:25:28;6.20;99.90
4566;DHT22;2295;51.050;14.608;2023-04-15T03:27:56;6.20;99.90
4566;DHT22;2295;51.050;14.608;2023-04-15T03:30:24;6.20;99.90
4566;DHT22;2295;51.050;14.608;2023-04-15T03:32:53;6.30;99.90
4566;DHT22;2295;51.050;14.608;2023-04-15T03:35:21;6.30;99.90
4566;DHT22;2295;51.050;14.608;2023-04-15T03:37:49;6.30;99.90
4566;DHT22;2295;51.050;14.608;2023-04-15T03:40:20;6.30;99.90
4566;DHT22;2295;51.050;14.608;2023-04-15T03:42:49;6.30;99.90
4566;DHT22;2295;51.050;14.608;2023-04-15T03:45:17;6.30;99.90
4566;DHT22;2295;51.050;14.608;2023-04-15T03:47:45;6.30;99.90
4566;DHT22;2295;51.050;14.608;2023-04-15T03:50:14;6.30;99.90
4566;DHT22;2295;51.050;14.608;2023-04-15T03:52:43;6.30;99.90
4566;DHT22;2295;51.050;14.608;2023-04-15T03:55:12;6.30;99.90
4566;DHT22;2295;51.050;14.608;2023-04-15T03:57:41;6.30;99.90
4566;DHT22;2295;51.050;14.608;2023-04-15T04:00:10;6.30;99.90
4566;DHT22;2295;51.050;14.608;2023-04-15T04:02:38;6.30;99.90
4566;DHT22;2295;51.050;14.608;2023-04-15T04:05:08;6.30;99.90
4566;DHT22;2295;51.050;14.608;2023-04-15T04:07:36;6.30;99.90
4566;DHT22;2295;51.050;14.608;2023-04-15T04:10:06;6.30;99.90
4566;DHT22;2295;51.050;14.608;2023-04-15T04:12:34;6.20;99.90
4566;DHT22;2295;51.050;14.608;2023-04-15T04:15:05;6.20;99.90
4566;DHT22;2295;51.050;14.608;2023-04-15T04:17:34;6.20;99.90
4566;DHT22;2295;51.050;14.608;2023-04-15T04:20:02;6.20;99.90
4566;DHT22;2295;51.050;14.608;2023-04-15T04:22:35;6.10;99.90
4566;DHT22;2295;51.050;14.608;2023-04-15T04:25:04;6.20;99.90
4566;DHT22;2295;51.050;14.608;2023-04-15T04:27:34;6.20;99.90
4566;DHT22;2295;51.050;14.608;2023-04-15T04:30:05;6.20;99.90
4566;DHT22;2295;51.050;14.608;2023-04-15T04:32:34;6.20;99.90
4566;DHT22;2295;51.050;14.608;2023-04-15T04:35:03;6.20;99.90
4566;DHT22;2295;51.050;14.608;2023-04-15T04:37:31;6.20;99.90
4566;DHT22;2295;51.050;14.608;2023-04-15T04:39:59;6.10;99.90
4566;DHT22;2295;51.050;14.608;2023-04-15T04:42:28;6.10;99.90
4566;DHT22;2295;51.050;14.608;2023-04-15T04:44:57;6.10;99.90
4566;DHT22;2295;51.050;14.608;2023-04-15T04:47:27;6.10;99.90
4566;DHT22;2295;51.050;14.608;2023-04-15T04:49:56;6.20;99.90
4566;DHT22;2295;51.050;14.608;2023-04-15T04:52:24;6.10;99.90
4566;DHT22;2295;51.050;14.608;2023-04-15T04:54:52;6.20;99.90
4566;DHT22;2295;51.050;14.608;2023-04-15T04:57:21;6.20;99.90
4566;DHT22;2295;51.050;14.608;2023-04-15T04:59:49;6.20;99.90
4566;DHT22;2295;51.050;14.608;2023-04-15T05:02:18;6.20;99.90
4566;DHT22;2295;51.050;14.608;2023-04-15T05:04:49;6.20;99.90
4566;DHT22;2295;51.050;14.608;2023-04-15T05:07:20;6.20;99.90
4566;DHT22;2295;51.050;14.608;2023-04-15T05:09:48;6.10;99.90
4566;DHT22;2295;51.050;14.608;2023-04-15T05:12:17;6.10;99.90
4566;DHT22;2295;51.050;14.608;2023-04-15T05:14:45;6.10;99.90
4566;DHT22;2295;51.050;14.608;2023-04-15T05:17:14;6.10;99.90
4566;DHT22;2295;51.050;14.608;2023-04-15T05:19:42;6.10;99.90
4566;DHT22;2295;51.050;14.608;2023-04-15T05:22:11;6.10;99.90
4566;DHT22;2295;51.050;14.608;2023-04-15T05:24:40;6.10;99.90
4566;DHT22;2295;51.050;14.608;2023-04-15T05:27:08;6.10;99.90
4566;DHT22;2295;51.050;14.608;2023-04-15T05:29:37;6.00;99.90
4566;DHT22;2295;51.050;14.608;2023-04-15T05:32:06;6.00;99.90
4566;DHT22;2295;51.050;14.608;2023-04-15T05:34:34;5.90;99.90
4566;DHT22;2295;51.050;14.608;2023-04-15T05:37:03;5.90;99.90
4566;DHT22;2295;51.050;14.608;2023-04-15T05:39:33;5.90;99.90
4566;DHT22;2295;51.050;14.608;2023-04-15T05:42:02;6.00;99.90
4566;DHT22;2295;51.050;14.608;2023-04-15T05:44:32;6.00;99.90
4566;DHT22;2295;51.050;14.608;2023-04-15T05:47:00;6.00;99.90
4566;DHT22;2295;51.050;14.608;2023-04-15T05:49:29;6.00;99.90
4566;DHT22;2295;51.050;14.608;2023-04-15T05:51:57;6.10;99.90
4566;DHT22;2295;51.050;14.608;2023-04-15T05:54:26;6.10;99.90
4566;DHT22;2295;51.050;14.608;2023-04-15T05:56:57;6.00;99.90
4566;DHT22;2295;51.050;14.608;2023-04-15T05:59:26;6.10;99.90
4566;DHT22;2295;51.050;14.608;2023-04-15T06:01:55;6.10;99.90
4566;DHT22;2295;51.050;14.608;2023-04-15T06:04:24;6.10;99.90
4566;DHT22;2295;51.050;14.608;2023-04-15T06:06:52;6.00;99.90
4566;DHT22;2295;51.050;14.608;2023-04-15T06:09:24;6.00;99.90
4566;DHT22;2295;51.050;14.608;2023-04-15T06:11:53;5.90;99.90
4566;DHT22;2295;51.050;14.608;2023-04-15T06:14:26;5.80;99.90
4566;DHT22;2295;51.050;14.608;2023-04-15T06:16:58;5.70;99.90
4566;DHT22;2295;51.050;14.608;2023-04-15T06:19:33;5.70;99.90
4566;DHT22;2295;51.050;14.608;2023-04-15T06:22:02;5.70;99.90
4566;DHT22;2295;51.050;14.608;2023-04-15T06:24:33;5.70;99.90
4566;DHT22;2295;51.050;14.608;2023-04-15T06:27:03;5.70;99.90
4566;DHT22;2295;51.050;14.608;2023-04-15T06:29:32;5.70;99.90
4566;DHT22;2295;51.050;14.608;2023-04-15T06:32:01;5.70;99.90
4566;DHT22;2295;51.050;14.608;2023-04-15T06:34:29;5.70;99.90
4566;DHT22;2295;51.050;14.608;2023-04-15T06:36:58;5.70;99.90
4566;DHT22;2295;51.050;14.608;2023-04-15T06:39:27;5.70;99.90
4566;DHT22;2295;51.050;14.608;2023-04-15T06:41:55;5.70;99.90
4566;DHT22;2295;51.050;14.608;2023-04-15T06:44:24;5.80;99.90
4566;DHT22;2295;51.050;14.608;2023-04-15T06:46:54;5.80;99.90
4566;DHT22;2295;51.050;14.608;2023-04-15T06:49:23;5.80;99.90
4566;DHT22;2295;51.050;14.608;2023-04-15T06:51:51;5.90;99.90
4566;DHT22;2295;51.050;14.608;2023-04-15T06:54:20;5.90;99.90
4566;DHT22;2295;51.050;14.608;2023-04-15T06:56:53;5.90;99.90
4566;DHT22;2295;51.050;14.608;2023-04-15T06:59:23;6.00;99.90
4566;DHT22;2295;51.050;14.608;2023-04-15T07:01:54;6.00;99.90
4566;DHT22;2295;51.050;14.608;2023-04-15T07:04:23;6.00;99.90
4566;DHT22;2295;51.050;14.608;2023-04-15T07:06:52;6.10;99.90
4566;DHT22;2295;51.050;14.608;2023-04-15T07:09:24;6.00;99.90
4566;DHT22;2295;51.050;14.608;2023-04-15T07:11:53;6.00;99.90
4566;DHT22;2295;51.050;14.608;2023-04-15T07:14:21;6.00;99.90
4566;DHT22;2295;51.050;14.608;2023-04-15T07:16:50;6.10;99.90
4566;DHT22;2295;51.050;14.608;2023-04-15T07:19:25;6.20;99.90
4566;DHT22;2295;51.050;14.608;2023-04-15T07:21:54;6.20;99.90
4566;DHT22;2295;51.050;14.608;2023-04-15T07:24:23;6.20;99.90
4566;DHT22;2295;51.050;14.608;2023-04-15T07:26:53;6.20;99.90
4566;DHT22;2295;51.050;14.608;2023-04-15T07:29:23;6.20;99.90
4566;DHT22;2295;51.050;14.608;2023-04-15T07:31:52;6.20;99.90
4566;DHT22;2295;51.050;14.608;2023-04-15T07:34:20;6.30;99.90
4566;DHT22;2295;51.050;14.608;2023-04-15T07:36:50;6.40;99.90
4566;DHT22;2295;51.050;14.608;2023-04-15T07:39:18;6.50;99.90
4566;DHT22;2295;51.050;14.608;2023-04-15T07:41:47;6.60;99.90
4566;DHT22;2295;51.050;14.608;2023-04-15T07:44:16;6.70;99.90
4566;DHT22;2295;51.050;14.608;2023-04-15T07:46:44;6.80;99.90
4566;DHT22;2295;51.050;14.608;2023-04-15T07:49:12;6.70;99.90
4566;DHT22;2295;51.050;14.608;2023-04-15T07:51:41;6.80;99.90
4566;DHT22;2295;51.050;14.608;2023-04-15T07:54:14;6.80;99.90
4566;DHT22;2295;51.050;14.608;2023-04-15T07:56:43;6.90;99.90
4566;DHT22;2295;51.050;14.608;2023-04-15T07:59:11;6.80;99.90
4566;DHT22;2295;51.050;14.608;2023-04-15T08:01:41;7.00;99.90
4566;DHT22;2295;51.050;14.608;2023-04-15T08:04:10;7.00;99.90
4566;DHT22;2295;51.050;14.608;2023-04-15T08:06:39;6.90;99.90
4566;DHT22;2295;51.050;14.608;2023-04-15T08:09:08;7.00;99.90
4566;DHT22;2295;51.050;14.608;2023-04-15T08:11:39;7.00;99.90
4566;DHT22;2295;51.050;14.608;2023-04-15T08:14:08;7.10;99.90
4566;DHT22;2295;51.050;14.608;2023-04-15T08:16:36;7.20;99.90
4566;DHT22;2295;51.050;14.608;2023-04-15T08:19:05;7.40;99.90
4566;DHT22;2295;51.050;14.608;2023-04-15T08:21:33;7.30;99.90
4566;DHT22;2295;51.050;14.608;2023-04-15T08:24:02;7.40;99.90
4566;DHT22;2295;51.050;14.608;2023-04-15T08:26:34;7.50;99.90
4566;DHT22;2295;51.050;14.608;2023-04-15T08:29:04;7.60;99.90
4566;DHT22;2295;51.050;14.608;2023-04-15T08:31:32;7.60;99.90
4566;DHT22;2295;51.050;14.608;2023-04-15T08:34:01;7.30;99.90
4566;DHT22;2295;51.050;14.608;2023-04-15T08:36:32;7.20;99.90
4566;DHT22;2295;51.050;14.608;2023-04-15T08:39:00;7.20;99.90
4566;DHT22;2295;51.050;14.608;2023-04-15T08:41:39;7.30;99.90
4566;DHT22;2295;51.050;14.608;2023-04-15T08:44:12;7.40;99.90
4566;DHT22;2295;51.050;14.608;2023-04-15T08:46:41;7.50;99.90
4566;DHT22;2295;51.050;14.608;2023-04-15T08:49:11;7.40;99.90
4566;DHT22;2295;51.050;14.608;2023-04-15T08:51:40;7.30;99.90
4566;DHT22;2295;51.050;14.608;2023-04-15T08:54:09;7.10;99.90
4566;DHT22;2295;51.050;14.608;2023-04-15T08:56:38;7.10;99.90
4566;DHT22;2295;51.050;14.608;2023-04-15T08:59:06;7.30;99.90
4566;DHT22;2295;51.050;14.608;2023-04-15T09:01:39;7.20;99.90
4566;DHT22;2295;51.050;14.608;2023-04-15T09:04:08;7.40;99.90
4566;DHT22;2295;51.050;14.608;2023-04-15T09:06:39;7.70;99.90
4566;DHT22;2295;51.050;14.608;2023-04-15T09:09:08;7.70;99.90
4566;DHT22;2295;51.050;14.608;2023-04-15T09:11:36;7.70;99.90
4566;DHT22;2295;51.050;14.608;2023-04-15T09:14:05;7.80;99.90
4566;DHT22;2295;51.050;14.608;2023-04-15T09:16:59;7.80;99.90
4566;DHT22;2295;51.050;14.608;2023-04-15T09:19:28;7.60;99.90
4566;DHT22;2295;51.050;14.608;2023-04-15T09:21:58;7.50;99.90
4566;DHT22;2295;51.050;14.608;2023-04-15T09:24:35;7.60;99.90
4566;DHT22;2295;51.050;14.608;2023-04-15T09:27:11;7.80;99.90
4566;DHT22;2295;51.050;14.608;2023-04-15T09:29:43;8.10;99.90
4566;DHT22;2295;51.050;14.608;2023-04-15T09:32:13;8.10;99.90
4566;DHT22;2295;51.050;14.608;2023-04-15T09:34:42;8.20;99.90
4566;DHT22;2295;51.050;14.608;2023-04-15T09:37:11;8.60;99.90
4566;DHT22;2295;51.050;14.608;2023-04-15T09:39:58;8.90;99.90
4566;DHT22;2295;51.050;14.608;2023-04-15T09:42:26;9.00;99.90
4566;DHT22;2295;51.050;14.608;2023-04-15T09:44:55;8.80;99.90
4566;DHT22;2295;51.050;14.608;2023-04-15T09:47:28;8.50;99.90
4566;DHT22;2295;51.050;14.608;2023-04-15T09:49:57;8.40;99.90
4566;DHT22;2295;51.050;14.608;2023-04-15T09:52:26;8.40;99.90
4566;DHT22;2295;51.050;14.608;2023-04-15T09:54:56;8.20;99.90
4566;DHT22;2295;51.050;14.608;2023-04-15T09:57:34;7.90;99.90
4566;DHT22;2295;51.050;14.608;2023-04-15T10:00:07;7.70;99.90
4566;DHT22;2295;51.050;14.608;2023-04-15T10:02:39;7.70;99.90
4566;DHT22;2295;51.050;14.608;2023-04-15T10:05:10;7.80;99.90
4566;DHT22;2295;51.050;14.608;2023-04-15T10:07:41;7.60;99.90
4566;DHT22;2295;51.050;14.608;2023-04-15T10:10:14;7.40;99.90
4566;DHT22;2295;51.050;14.608;2023-04-15T10:12:43;7.40;99.90
4566;DHT22;2295;51.050;14.608;2023-04-15T10:15:15;7.40;99.90
4566;DHT22;2295;51.050;14.608;2023-04-15T10:17:47;7.40;99.90
4566;DHT22;2295;51.050;14.608;2023-04-15T10:20:18;7.60;99.90
4566;DHT22;2295;51.050;14.608;2023-04-15T10:22:48;7.70;99.90
4566;DHT22;2295;51.050;14.608;2023-04-15T10:25:17;7.70;99.90
4566;DHT22;2295;51.050;14.608;2023-04-15T10:27:46;7.70;99.90
4566;DHT22;2295;51.050;14.608;2023-04-15T10:30:15;7.70;99.90
4566;DHT22;2295;51.050;14.608;2023-04-15T10:32:47;7.60;99.90
4566;DHT22;2295;51.050;14.608;2023-04-15T10:35:19;7.60;99.90
4566;DHT22;2295;51.050;14.608;2023-04-15T10:37:48;7.70;99.90
4566;DHT22;2295;51.050;14.608;2023-04-15T10:40:25;7.90;99.90
4566;DHT22;2295;51.050;14.608;2023-04-15T10:42:54;7.90;99.90
4566;DHT22;2295;51.050;14.608;2023-04-15T10:45:25;8.20;99.90
4566;DHT22;2295;51.050;14.608;2023-04-15T10:47:56;8.50;99.90
4566;DHT22;2295;51.050;14.608;2023-04-15T10:50:30;8.70;99.90
4566;DHT22;2295;51.050;14.608;2023-04-15T10:53:02;8.90;99.90
4566;DHT22;2295;51.050;14.608;2023-04-15T10:55:33;8.90;99.90
4566;DHT22;2295;51.050;14.608;2023-04-15T10:58:05;9.00;99.90
4566;DHT22;2295;51.050;14.608;2023-04-15T11:00:36;9.20;99.90
4566;DHT22;2295;51.050;14.608;2023-04-15T11:03:07;9.40;99.90
4566;DHT22;2295;51.050;14.608;2023-04-15T11:05:51;9.70;99.90
4566;DHT22;2295;51.050;14.608;2023-04-15T11:11:06;10.20;99.90
4566;DHT22;2295;51.050;14.608;2023-04-15T11:13:34;10.60;99.90
4566;DHT22;2295;51.050;14.608;2023-04-15T11:16:02;11.20;99.90
4566;DHT22;2295;51.050;14.608;2023-04-15T11:18:33;11.60;99.90
4566;DHT22;2295;51.050;14.608;2023-04-15T11:21:03;11.80;99.90
4566;DHT22;2295;51.050;14.608;2023-04-15T11:23:37;11.90;99.90
4566;DHT22;2295;51.050;14.608;2023-04-15T11:26:07;11.80;99.90
4566;DHT22;2295;51.050;14.608;2023-04-15T11:28:39;11.60;99.90
4566;DHT22;2295;51.050;14.608;2023-04-15T11:31:10;11.20;99.90
4566;DHT22;2295;51.050;14.608;2023-04-15T11:33:52;10.90;99.90
4566;DHT22;2295;51.050;14.608;2023-04-15T11:36:23;10.50;99.90
4566;DHT22;2295;51.050;14.608;2023-04-15T11:38:54;10.20;99.90
4566;DHT22;2295;51.050;14.608;2023-04-15T11:41:22;10.20;99.90
4566;DHT22;2295;51.050;14.608;2023-04-15T11:43:51;10.30;99.90
4566;DHT22;2295;51.050;14.608;2023-04-15T11:46:20;10.40;99.90
4566;DHT22;2295;51.050;14.608;2023-04-15T11:48:50;10.40;99.90
4566;DHT22;2295;51.050;14.608;2023-04-15T11:51:18;10.00;99.90
4566;DHT22;2295;51.050;14.608;2023-04-15T11:53:49;10.00;99.90
4566;DHT22;2295;51.050;14.608;2023-04-15T11:56:19;9.80;99.90
4566;DHT22;2295;51.050;14.608;2023-04-15T11:58:50;9.90;99.90
4566;DHT22;2295;51.050;14.608;2023-04-15T12:01:30;9.80;99.90
4566;DHT22;2295;51.050;14.608;2023-04-15T12:04:00;10.00;99.90
4566;DHT22;2295;51.050;14.608;2023-04-15T12:06:37;9.80;99.90
4566;DHT22;2295;51.050;14.608;2023-04-15T12:09:09;9.90;99.90
4566;DHT22;2295;51.050;14.608;2023-04-15T12:11:43;10.40;99.90
4566;DHT22;2295;51.050;14.608;2023-04-15T12:14:18;10.80;99.90
4566;DHT22;2295;51.050;14.608;2023-04-15T12:16:48;11.10;99.90
4566;DHT22;2295;51.050;14.608;2023-04-15T12:19:26;11.30;99.90
4566;DHT22;2295;51.050;14.608;2023-04-15T12:22:00;11.20;99.90
4566;DHT22;2295;51.050;14.608;2023-04-15T12:24:31;11.30;99.90
4566;DHT22;2295;51.050;14.608;2023-04-15T12:27:01;11.40;99.90
4566;DHT22;2295;51.050;14.608;2023-04-15T12:29:30;11.70;99.90
4566;DHT22;2295;51.050;14.608;2023-04-15T12:32:06;11.90;99.90
4566;DHT22;2295;51.050;14.608;2023-04-15T12:34:37;12.20;99.90
4566;DHT22;2295;51.050;14.608;2023-04-15T12:37:07;12.50;99.90
4566;DHT22;2295;51.050;14.608;2023-04-15T12:39:38;12.60;99.90
4566;DHT22;2295;51.050;14.608;2023-04-15T12:42:07;11.30;99.90
4566;DHT22;2295;51.050;14.608;2023-04-15T12:44:37;11.10;99.90
4566;DHT22;2295;51.050;14.608;2023-04-15T12:47:09;10.20;99.90
4566;DHT22;2295;51.050;14.608;2023-04-15T12:49:40;10.60;99.90
4566;DHT22;2295;51.050;14.608;2023-04-15T12:52:08;11.00;99.90
4566;DHT22;2295;51.050;14.608;2023-04-15T12:54:39;11.00;99.90
4566;DHT22;2295;51.050;14.608;2023-04-15T12:57:10;11.10;99.90
4566;DHT22;2295;51.050;14.608;2023-04-15T12:59:38;11.20;99.90
4566;DHT22;2295;51.050;14.608;2023-04-15T13:02:07;11.30;99.90
4566;DHT22;2295;51.050;14.608;2023-04-15T13:04:35;11.20;99.90
4566;DHT22;2295;51.050;14.608;2023-04-15T13:07:05;10.30;99.90
4566;DHT22;2295;51.050;14.608;2023-04-15T13:09:34;10.20;99.90
4566;DHT22;2295;51.050;14.608;2023-04-15T13:12:02;10.60;99.90
4566;DHT22;2295;51.050;14.608;2023-04-15T13:14:31;11.00;99.90
4566;DHT22;2295;51.050;14.608;2023-04-15T13:16:59;11.30;99.90
4566;DHT22;2295;51.050;14.608;2023-04-15T13:19:30;11.20;99.90
4566;DHT22;2295;51.050;14.608;2023-04-15T13:21:58;10.90;99.90
4566;DHT22;2295;51.050;14.608;2023-04-15T13:24:28;11.10;99.90
4566;DHT22;2295;51.050;14.608;2023-04-15T13:26:57;11.30;99.90
4566;DHT22;2295;51.050;14.608;2023-04-15T13:29:25;11.50;99.90
4566;DHT22;2295;51.050;14.608;2023-04-15T13:31:53;11.70;99.90
4566;DHT22;2295;51.050;14.608;2023-04-15T13:34:22;11.60;99.90
4566;DHT22;2295;51.050;14.608;2023-04-15T13:36:51;11.10;99.90
4566;DHT22;2295;51.050;14.608;2023-04-15T13:39:19;11.10;99.90
4566;DHT22;2295;51.050;14.608;2023-04-15T13:41:52;11.00;99.90
4566;DHT22;2295;51.050;14.608;2023-04-15T13:44:20;10.90;99.90
4566;DHT22;2295;51.050;14.608;2023-04-15T13:46:49;11.10;99.90
4566;DHT22;2295;51.050;14.608;2023-04-15T13:49:17;11.20;99.90
4566;DHT22;2295;51.050;14.608;2023-04-15T13:51:46;11.20;99.90
4566;DHT22;2295;51.050;14.608;2023-04-15T13:54:15;11.20;99.90
4566;DHT22;2295;51.050;14.608;2023-04-15T13:56:43;11.30;99.90
4566;DHT22;2295;51.050;14.608;2023-04-15T13:59:15;11.20;99.90
4566;DHT22;2295;51.050;14.608;2023-04-15T14:01:44;11.20;99.90
4566;DHT22;2295;51.050;14.608;2023-04-15T14:04:12;11.20;99.90
4566;DHT22;2295;51.050;14.608;2023-04-15T14:06:47;11.10;99.90
4566;DHT22;2295;51.050;14.608;2023-04-15T14:09:16;11.20;99.90
4566;DHT22;2295;51.050;14.608;2023-04-15T14:11:45;11.30;99.90
4566;DHT22;2295;51.050;14.608;2023-04-15T14:14:17;11.30;99.90
4566;DHT22;2295;51.050;14.608;2023-04-15T14:16:46;11.40;99.90
4566;DHT22;2295;51.050;14.608;2023-04-15T14:19:14;11.50;99.90
4566;DHT22;2295;51.050;14.608;2023-04-15T14:21:43;11.60;99.90
4566;DHT22;2295;51.050;14.608;2023-04-15T14:24:11;11.60;99.90
4566;DHT22;2295;51.050;14.608;2023-04-15T14:26:39;11.60;99.90
4566;DHT22;2295;51.050;14.608;2023-04-15T14:29:09;11.30;99.90
4566;DHT22;2295;51.050;14.608;2023-04-15T14:31:39;11.30;99.90
4566;DHT22;2295;51.050;14.608;2023-04-15T14:34:27;11.40;99.90
4566;DHT22;2295;51.050;14.608;2023-04-15T14:36:56;11.20;99.90
4566;DHT22;2295;51.050;14.608;2023-04-15T14:39:28;10.90;99.90
4566;DHT22;2295;51.050;14.608;2023-04-15T14:41:56;10.80;99.90
4566;DHT22;2295;51.050;14.608;2023-04-15T14:44:24;10.80;99.90
4566;DHT22;2295;51.050;14.608;2023-04-15T14:46:58;10.80;99.90
4566;DHT22;2295;51.050;14.608;2023-04-15T14:49:26;10.70;99.90
4566;DHT22;2295;51.050;14.608;2023-04-15T14:51:54;10.60;99.90
4566;DHT22;2295;51.050;14.608;2023-04-15T14:54:23;10.60;99.90
4566;DHT22;2295;51.050;14.608;2023-04-15T14:56:57;10.40;99.90
4566;DHT22;2295;51.050;14.608;2023-04-15T14:59:27;10.30;99.90
4566;DHT22;2295;51.050;14.608;2023-04-15T15:01:57;10.30;99.90
4566;DHT22;2295;51.050;14.608;2023-04-15T15:04:26;10.20;99.90
4566;DHT22;2295;51.050;14.608;2023-04-15T15:06:55;10.10;99.90
4566;DHT22;2295;51.050;14.608;2023-04-15T15:09:26;10.20;99.90
4566;DHT22;2295;51.050;14.608;2023-04-15T15:11:54;10.20;99.90
4566;DHT22;2295;51.050;14.608;2023-04-15T15:14:24;10.30;99.90
4566;DHT22;2295;51.050;14.608;2023-04-15T15:16:52;10.40;99.90
4566;DHT22;2295;51.050;14.608;2023-04-15T15:19:22;10.20;99.90
4566;DHT22;2295;51.050;14.608;2023-04-15T15:21:51;10.20;99.90
4566;DHT22;2295;51.050;14.608;2023-04-15T15:24:19;10.30;99.90
4566;DHT22;2295;51.050;14.608;2023-04-15T15:26:51;10.10;99.90
4566;DHT22;2295;51.050;14.608;2023-04-15T15:29:19;10.10;99.90
4566;DHT22;2295;51.050;14.608;2023-04-15T15:31:48;10.10;99.90
4566;DHT22;2295;51.050;14.608;2023-04-15T15:34:16;9.90;99.90
4566;DHT22;2295;51.050;14.608;2023-04-15T15:36:49;9.90;99.90
4566;DHT22;2295;51.050;14.608;2023-04-15T15:39:19;9.90;99.90
4566;DHT22;2295;51.050;14.608;2023-04-15T15:41:47;9.80;99.90
4566;DHT22;2295;51.050;14.608;2023-04-15T15:44:16;9.80;99.90
4566;DHT22;2295;51.050;14.608;2023-04-15T15:46:47;9.80;99.90
4566;DHT22;2295;51.050;14.608;2023-04-15T15:49:20;9.80;99.90
4566;DHT22;2295;51.050;14.608;2023-04-15T15:51:49;9.70;99.90
4566;DHT22;2295;51.050;14.608;2023-04-15T15:54:18;9.60;99.90
4566;DHT22;2295;51.050;14.608;2023-04-15T15:56:52;9.40;99.90
4566;DHT22;2295;51.050;14.608;2023-04-15T15:59:21;9.40;99.90
4566;DHT22;2295;51.050;14.608;2023-04-15T16:01:52;9.30;99.90
4566;DHT22;2295;51.050;14.608;2023-04-15T16:04:20;9.30;99.90
4566;DHT22;2295;51.050;14.608;2023-04-15T16:06:51;9.30;99.90
4566;DHT22;2295;51.050;14.608;2023-04-15T16:09:19;9.30;99.90
4566;DHT22;2295;51.050;14.608;2023-04-15T16:11:47;9.20;99.90
4566;DHT22;2295;51.050;14.608;2023-04-15T16:14:16;9.10;99.90
4566;DHT22;2295;51.050;14.608;2023-04-15T16:16:57;9.10;99.90